createdAt,value
2019-01-18T00:00:42.248Z,0.50
2019-01-18T00:03:12.098Z,0.40
2019-01-18T00:05:41.872Z,0.40
2019-01-18T00:08:11.576Z,0.40
2019-01-18T00:10:41.218Z,0.40
2019-01-18T00:13:10.884Z,0.30
2019-01-18T00:15:40.595Z,0.30
2019-01-18T00:18:10.204Z,0.30
2019-01-18T00:24:13.128Z,0.30
2019-01-18T00:26:42.908Z,0.30
2019-01-18T00:29:12.500Z,0.40
2019-01-18T00:31:42.184Z,0.30
2019-01-18T00:38:20.702Z,0.40
2019-01-18T00:40:50.363Z,0.50
2019-01-18T00:43:20.033Z,0.50
2019-01-18T00:45:49.827Z,0.40
2019-01-18T00:48:19.537Z,0.40
2019-01-18T00:50:49.224Z,0.30
2019-01-18T00:53:18.850Z,0.30
2019-01-18T00:55:48.499Z,0.20
2019-01-18T00:58:18.121Z,0.10
2019-01-18T01:00:47.759Z,0.10
2019-01-18T01:03:17.454Z,0.10
2019-01-18T01:09:19.339Z,0.00
2019-01-18T01:11:49.019Z,-0.10
2019-01-18T01:14:19.287Z,-0.10
2019-01-18T01:16:49.040Z,-0.20
2019-01-18T01:19:18.743Z,-0.20
2019-01-18T01:21:48.385Z,-0.30
2019-01-18T01:24:17.944Z,-0.30
2019-01-18T01:26:47.619Z,-0.30
2019-01-18T01:29:17.315Z,-0.30
2019-01-18T01:31:47.079Z,-0.30
2019-01-18T01:34:16.823Z,-0.30
2019-01-18T01:36:46.488Z,-0.40
2019-01-18T01:39:16.214Z,-0.40
2019-01-18T01:41:45.865Z,-0.40
2019-01-18T01:44:15.545Z,-0.40
2019-01-18T01:46:45.209Z,-0.40
2019-01-18T01:49:14.851Z,-0.40
2019-01-18T01:51:44.489Z,-0.50
2019-01-18T01:54:14.062Z,-0.50
2019-01-18T01:56:43.698Z,-0.50
2019-01-18T01:59:13.363Z,-0.60
2019-01-18T02:01:42.907Z,-0.60
2019-01-18T02:04:12.637Z,-0.70
2019-01-18T02:06:42.324Z,-0.80
2019-01-18T02:09:12.141Z,-0.80
2019-01-18T02:11:41.930Z,-0.90
2019-01-18T02:14:11.661Z,-1.00
2019-01-18T02:16:41.309Z,-1.00
2019-01-18T02:19:10.939Z,-1.10
2019-01-18T02:21:40.615Z,-1.10
2019-01-18T02:24:10.425Z,-1.20
2019-01-18T02:26:40.100Z,-1.10
2019-01-18T02:29:09.807Z,-1.10
2019-01-18T02:31:39.516Z,-1.10
2019-01-18T02:34:09.194Z,-1.10
2019-01-18T02:36:39.704Z,-1.10
2019-01-18T02:39:09.522Z,-1.20
2019-01-18T02:41:39.243Z,-1.20
2019-01-18T02:44:08.858Z,-1.30
2019-01-18T02:46:38.456Z,-1.30
2019-01-18T02:49:08.056Z,-1.30
2019-01-18T02:51:37.887Z,-1.30
2019-01-18T02:54:07.670Z,-1.30
2019-01-18T02:56:37.208Z,-1.30
2019-01-18T02:59:06.918Z,-1.30
2019-01-18T03:01:36.579Z,-1.40
2019-01-18T03:04:06.211Z,-1.40
2019-01-18T03:06:35.691Z,-1.40
2019-01-18T03:09:08.289Z,-1.30
2019-01-18T03:11:38.098Z,-1.30
2019-01-18T03:14:07.836Z,-1.30
2019-01-18T03:16:37.600Z,-1.30
2019-01-18T03:19:07.236Z,-1.30
2019-01-18T03:25:21.206Z,-1.30
2019-01-18T03:27:50.802Z,-1.30
2019-01-18T03:30:21.330Z,-1.20
2019-01-18T03:32:51.473Z,-1.30
2019-01-18T03:35:22.194Z,-1.40
2019-01-18T03:37:52.056Z,-1.50
2019-01-18T03:40:21.799Z,-1.50
2019-01-18T03:42:52.198Z,-1.60
2019-01-18T03:45:21.899Z,-1.60
2019-01-18T03:47:51.347Z,-1.60
2019-01-18T03:53:53.417Z,-1.50
2019-01-18T03:56:22.974Z,-1.40
2019-01-18T03:58:52.637Z,-1.40
2019-01-18T04:01:22.384Z,-1.40
2019-01-18T04:03:52.091Z,-1.50
2019-01-18T04:09:54.269Z,-1.60
2019-01-18T04:12:23.992Z,-1.50
2019-01-18T04:14:53.756Z,-1.40
2019-01-18T04:17:23.463Z,-1.40
2019-01-18T04:23:58.746Z,-1.30
2019-01-18T04:26:28.392Z,-1.30
2019-01-18T04:28:58.112Z,-1.30
2019-01-18T04:31:27.804Z,-1.30
2019-01-18T04:33:57.485Z,-1.40
2019-01-18T04:36:27.135Z,-1.40
2019-01-18T04:38:56.731Z,-1.30
2019-01-18T04:41:26.537Z,-1.50
2019-01-18T04:43:56.090Z,-1.50
2019-01-18T04:46:25.813Z,-1.50
2019-01-18T04:48:55.416Z,-1.50
2019-01-18T04:51:25.205Z,-1.50
2019-01-18T04:53:54.927Z,-1.50
2019-01-18T04:56:24.608Z,-1.50
2019-01-18T04:58:54.317Z,-1.60
2019-01-18T05:01:34.273Z,-1.60
2019-01-18T05:04:04.720Z,-1.50
2019-01-18T05:06:34.419Z,-1.50
2019-01-18T05:09:06.805Z,-1.50
2019-01-18T05:11:36.389Z,-1.40
2019-01-18T05:14:06.038Z,-1.40
2019-01-18T05:16:36.137Z,-1.40
2019-01-18T05:19:05.958Z,-1.40
2019-01-18T05:21:35.654Z,-1.40
2019-01-18T05:24:05.259Z,-1.40
2019-01-18T05:26:34.913Z,-1.40
2019-01-18T05:29:04.518Z,-1.40
2019-01-18T05:31:34.123Z,-1.40
2019-01-18T05:34:03.753Z,-1.40
2019-01-18T05:36:33.403Z,-1.40
2019-01-18T05:39:03.282Z,-1.40
2019-01-18T05:41:32.927Z,-1.40
2019-01-18T05:44:02.512Z,-1.40
2019-01-18T05:46:32.216Z,-1.40
2019-01-18T05:49:01.826Z,-1.40
2019-01-18T05:58:36.403Z,-1.50
2019-01-18T06:01:08.653Z,-1.50
2019-01-18T06:03:38.326Z,-1.50
2019-01-18T06:06:08.020Z,-1.60
2019-01-18T06:08:38.026Z,-1.60
2019-01-18T06:11:07.711Z,-1.60
2019-01-18T06:13:37.493Z,-1.70
2019-01-18T06:16:07.356Z,-1.70
2019-01-18T06:18:37.092Z,-1.70
2019-01-18T06:24:39.497Z,-1.70
2019-01-18T06:27:09.055Z,-1.40
2019-01-18T06:29:38.578Z,-1.50
2019-01-18T06:32:08.124Z,-1.50
2019-01-18T06:34:37.694Z,-1.60
2019-01-18T06:37:07.350Z,-1.70
2019-01-18T06:39:36.975Z,-1.70
2019-01-18T06:42:06.765Z,-1.80
2019-01-18T06:44:36.394Z,-1.80
2019-01-18T06:47:05.999Z,-1.70
2019-01-18T06:49:35.741Z,-1.70
2019-01-18T06:52:05.310Z,-1.80
2019-01-18T06:54:35.091Z,-1.80
2019-01-18T06:57:04.749Z,-1.80
2019-01-18T06:59:35.299Z,-1.80
2019-01-18T07:02:05.101Z,-1.80
2019-01-18T07:04:40.477Z,-1.80
2019-01-18T07:07:06.130Z,-1.90
2019-01-18T07:09:35.875Z,-1.90
2019-01-18T07:12:05.660Z,-1.90
2019-01-18T07:14:35.393Z,-1.90
2019-01-18T07:17:06.026Z,-2.00
2019-01-18T07:19:35.765Z,-2.00
2019-01-18T07:22:05.611Z,-2.10
2019-01-18T07:24:35.297Z,-2.10
2019-01-18T07:27:04.923Z,-2.10
2019-01-18T07:29:34.611Z,-2.00
2019-01-18T07:32:04.285Z,-2.10
2019-01-18T07:34:34.003Z,-2.10
2019-01-18T07:40:36.561Z,-2.30
2019-01-18T07:43:06.214Z,-2.20
2019-01-18T07:45:35.977Z,-2.30
2019-01-18T07:48:06.131Z,-2.30
2019-01-18T07:50:35.890Z,-2.30
2019-01-18T07:53:05.578Z,-2.20
2019-01-18T07:55:35.387Z,-2.30
2019-01-18T07:58:04.977Z,-2.20
2019-01-18T08:00:34.650Z,-2.20
2019-01-18T08:03:04.255Z,-2.20
2019-01-18T08:05:34.010Z,-2.20
2019-01-18T08:08:03.725Z,-2.20
2019-01-18T08:10:33.403Z,-2.20
2019-01-18T08:13:03.210Z,-2.10
2019-01-18T08:15:33.082Z,-2.10
2019-01-18T08:18:02.669Z,-2.00
2019-01-18T08:24:35.158Z,-1.90
2019-01-18T08:27:04.865Z,-1.90
2019-01-18T08:29:34.554Z,-1.90
2019-01-18T08:32:04.304Z,-1.90
2019-01-18T08:34:33.962Z,-1.80
2019-01-18T08:40:41.472Z,-1.70
2019-01-18T08:43:13.099Z,-1.70
2019-01-18T08:45:48.651Z,-1.60
2019-01-18T08:48:18.340Z,-1.50
2019-01-18T08:50:48.154Z,-1.40
2019-01-18T08:53:17.926Z,-1.30
2019-01-18T08:55:47.693Z,-1.30
2019-01-18T08:58:17.427Z,-1.20
2019-01-18T09:00:47.153Z,-1.10
2019-01-18T09:03:16.933Z,-1.00
2019-01-18T09:05:46.680Z,-1.00
2019-01-18T09:08:16.474Z,-0.80
2019-01-18T09:10:46.627Z,-0.70
2019-01-18T09:13:16.464Z,-0.60
2019-01-18T09:15:46.202Z,-0.40
2019-01-18T09:18:15.936Z,-0.20
2019-01-18T09:20:45.834Z,0.00
2019-01-18T09:23:15.463Z,0.20
2019-01-18T09:25:45.132Z,0.20
2019-01-18T09:28:14.734Z,0.30
2019-01-18T09:30:44.454Z,0.30
2019-01-18T09:33:14.029Z,0.30
2019-01-18T09:39:40.449Z,0.40
2019-01-18T09:42:10.112Z,0.50
2019-01-18T09:44:39.729Z,0.60
2019-01-18T09:47:09.435Z,0.70
2019-01-18T09:49:38.987Z,0.80
2019-01-18T09:52:08.513Z,0.80
2019-01-18T09:54:38.206Z,0.90
2019-01-18T09:57:07.816Z,0.90
2019-01-18T09:59:40.543Z,0.90
2019-01-18T10:02:10.311Z,1.00
2019-01-18T10:04:39.967Z,1.10
2019-01-18T10:10:42.388Z,1.10
2019-01-18T10:13:11.872Z,1.20
2019-01-18T10:15:43.674Z,1.30
2019-01-18T10:18:13.584Z,1.30
2019-01-18T10:20:43.101Z,1.30
2019-01-18T10:23:12.944Z,1.40
2019-01-18T10:25:42.699Z,1.50
2019-01-18T10:28:12.470Z,1.60
2019-01-18T10:30:42.169Z,1.60
2019-01-18T10:33:11.813Z,1.70
2019-01-18T10:35:41.524Z,1.80
2019-01-18T10:38:11.178Z,1.80
2019-01-18T10:40:41.010Z,1.90
2019-01-18T10:43:10.937Z,1.90
2019-01-18T10:45:40.707Z,2.10
2019-01-18T10:48:10.483Z,2.10
2019-01-18T10:50:40.158Z,2.10
2019-01-18T10:53:09.725Z,2.10
2019-01-18T10:55:39.567Z,2.20
2019-01-18T10:58:09.330Z,2.30
2019-01-18T11:00:39.011Z,2.40
2019-01-18T11:03:09.116Z,2.40
2019-01-18T11:05:39.148Z,2.50
2019-01-18T11:08:08.871Z,2.60
2019-01-18T11:10:38.580Z,2.60
2019-01-18T11:13:08.224Z,2.70
2019-01-18T11:15:37.958Z,2.70
2019-01-18T11:18:08.010Z,2.80
2019-01-18T11:24:52.518Z,3.00
2019-01-18T11:27:22.232Z,3.10
2019-01-18T11:29:51.814Z,3.30
2019-01-18T11:32:21.693Z,3.30
2019-01-18T11:34:51.648Z,3.40
2019-01-18T11:40:53.769Z,3.60
2019-01-18T11:43:23.753Z,3.60
2019-01-18T11:45:53.354Z,3.60
2019-01-18T11:48:22.972Z,3.70
2019-01-18T11:50:52.665Z,3.70
2019-01-18T11:53:25.415Z,3.80
2019-01-18T11:55:55.082Z,3.90
2019-01-18T11:58:24.659Z,4.00
2019-01-18T12:00:54.434Z,4.00
2019-01-18T12:03:24.190Z,4.00
2019-01-18T12:05:54.294Z,4.00
2019-01-18T12:08:23.972Z,4.10
2019-01-18T12:10:53.598Z,4.20
2019-01-18T12:13:23.186Z,4.20
2019-01-18T12:15:52.870Z,4.20
2019-01-18T12:18:22.619Z,4.30
2019-01-18T12:27:17.955Z,4.40
2019-01-18T12:29:47.604Z,4.40
2019-01-18T12:32:17.220Z,4.50
2019-01-18T12:34:46.939Z,4.60
2019-01-18T12:40:58.095Z,4.60
2019-01-18T12:43:27.644Z,4.60
2019-01-18T12:45:57.355Z,4.50
2019-01-18T12:48:27.138Z,4.50
2019-01-18T12:55:05.537Z,4.60
2019-01-18T12:57:35.145Z,4.60
2019-01-18T13:00:07.379Z,4.60
2019-01-18T13:02:36.999Z,4.60
2019-01-18T13:05:09.817Z,4.60
2019-01-18T13:07:39.469Z,4.70
2019-01-18T13:10:12.230Z,4.80
2019-01-18T13:12:40.645Z,4.80
2019-01-18T13:15:16.137Z,4.80
2019-01-18T13:17:45.798Z,4.80
2019-01-18T13:20:15.617Z,4.70
2019-01-18T13:26:17.663Z,4.80
2019-01-18T13:28:47.337Z,4.80
2019-01-18T13:31:17.015Z,4.70
2019-01-18T13:33:46.694Z,4.80
2019-01-18T13:36:16.514Z,4.70
2019-01-18T13:38:46.233Z,4.70
2019-01-18T13:41:15.903Z,4.60
2019-01-18T13:43:45.473Z,4.50
2019-01-18T13:46:15.168Z,4.50
2019-01-18T13:48:44.843Z,4.50
2019-01-18T13:55:13.102Z,4.30
2019-01-18T13:57:42.817Z,4.30
2019-01-18T14:00:12.790Z,4.20
2019-01-18T14:02:48.193Z,4.20
2019-01-18T14:05:13.834Z,4.20
2019-01-18T14:07:43.652Z,4.20
2019-01-18T14:10:16.705Z,4.20
2019-01-18T14:12:46.482Z,4.10
2019-01-18T14:15:19.079Z,4.10
2019-01-18T14:17:48.742Z,4.00
2019-01-18T14:20:20.965Z,3.90
2019-01-18T14:22:52.037Z,3.90
2019-01-18T14:25:21.779Z,3.80
2019-01-18T14:27:51.245Z,3.70
2019-01-18T14:30:23.263Z,3.70
2019-01-18T14:32:55.723Z,3.70
2019-01-18T14:35:24.273Z,3.70
2019-01-18T14:41:30.940Z,3.60
2019-01-18T14:43:57.692Z,3.50
2019-01-18T14:46:27.254Z,3.50
2019-01-18T14:48:56.809Z,3.40
2019-01-18T14:55:20.169Z,3.30
2019-01-18T14:57:49.882Z,3.20
2019-01-18T15:00:26.305Z,3.10
2019-01-18T15:03:02.029Z,3.00
2019-01-18T15:05:27.322Z,3.00
2019-01-18T15:07:57.118Z,2.90
2019-01-18T15:10:26.739Z,2.80
2019-01-18T15:12:59.826Z,2.80
2019-01-18T15:15:29.444Z,2.70
2019-01-18T15:17:59.220Z,2.60
2019-01-18T15:20:30.550Z,2.60
2019-01-18T15:23:00.265Z,2.50
2019-01-18T15:25:29.963Z,2.40
2019-01-18T15:28:00.952Z,2.40
2019-01-18T15:30:31.603Z,2.30
2019-01-18T15:33:01.422Z,2.20
2019-01-18T15:35:33.799Z,2.10
2019-01-18T15:38:03.610Z,2.00
2019-01-18T15:40:35.339Z,1.90
2019-01-18T15:43:05.887Z,1.80
2019-01-18T15:45:35.627Z,1.70
2019-01-18T15:48:13.739Z,1.60
2019-01-18T15:50:43.501Z,1.50
2019-01-18T15:53:13.259Z,1.50
2019-01-18T15:55:43.014Z,1.40
2019-01-18T15:58:12.734Z,1.20
2019-01-18T16:00:45.302Z,1.20
2019-01-18T16:03:16.103Z,1.10
2019-01-18T16:05:46.442Z,1.00
2019-01-18T16:08:16.098Z,0.90
2019-01-18T16:10:45.804Z,0.90
2019-01-18T16:13:15.550Z,0.80
2019-01-18T16:15:50.697Z,0.80
2019-01-18T16:18:20.345Z,0.70
2019-01-18T16:20:50.122Z,0.60
2019-01-18T16:23:19.742Z,0.60
2019-01-18T16:25:49.442Z,0.50
2019-01-18T16:28:19.209Z,0.40
2019-01-18T16:30:48.802Z,0.30
2019-01-18T16:33:23.351Z,0.30
2019-01-18T16:35:52.152Z,0.20
2019-01-18T16:38:21.776Z,0.20
2019-01-18T16:40:51.447Z,0.20
2019-01-18T16:43:24.901Z,0.20
2019-01-18T16:45:54.495Z,0.20
2019-01-18T16:48:24.425Z,0.20
2019-01-18T16:50:54.149Z,0.30
2019-01-18T16:53:25.264Z,0.20
2019-01-18T16:55:54.937Z,0.20
2019-01-18T16:58:24.617Z,0.20
2019-01-18T17:00:55.581Z,0.10
2019-01-18T17:03:30.374Z,0.10
2019-01-18T17:05:56.465Z,0.10
2019-01-18T17:08:28.295Z,0.20
2019-01-18T17:10:58.397Z,0.20
2019-01-18T17:13:31.058Z,0.10
2019-01-18T17:16:00.749Z,0.00
2019-01-18T17:18:30.522Z,-0.20
2019-01-18T17:21:00.187Z,-0.20
2019-01-18T17:23:33.624Z,-0.30
2019-01-18T17:26:03.423Z,-0.30
2019-01-18T17:28:33.158Z,-0.40
2019-01-18T17:31:02.804Z,-0.40
2019-01-18T17:33:36.722Z,-0.50
2019-01-18T17:36:24.890Z,-0.60
2019-01-18T17:40:02.880Z,-0.60
2019-01-18T17:43:09.600Z,-0.70
2019-01-18T17:46:29.536Z,-0.70
2019-01-18T17:49:35.162Z,-0.80
2019-01-18T17:52:41.479Z,-0.80
2019-01-18T17:56:06.766Z,-0.80
2019-01-18T17:59:01.372Z,-0.90
2019-01-18T18:02:14.880Z,-0.90
2019-01-18T18:05:23.448Z,-0.90
2019-01-18T18:08:30.546Z,-0.90
2019-01-18T18:11:38.690Z,-0.90
2019-01-18T18:15:07.760Z,-1.00
2019-01-18T18:18:16.153Z,-0.90
2019-01-18T18:21:01.002Z,-1.00
2019-01-18T18:23:58.216Z,-1.00
2019-01-18T18:27:03.289Z,-1.00
2019-01-18T18:30:14.630Z,-1.00
2019-01-18T18:33:27.518Z,-1.10
2019-01-18T18:36:30.297Z,-1.00
2019-01-18T18:39:15.575Z,-1.10
2019-01-18T18:42:10.061Z,-1.00
2019-01-18T18:45:10.548Z,-1.10
2019-01-18T18:48:10.876Z,-1.10
2019-01-18T18:51:00.339Z,-1.10
2019-01-18T18:53:55.449Z,-1.10
2019-01-18T18:57:26.105Z,-1.10
2019-01-18T19:00:18.121Z,-1.10
2019-01-18T19:03:13.487Z,-1.20
2019-01-18T19:06:19.676Z,-1.20
2019-01-18T19:09:29.441Z,-1.20
2019-01-18T19:12:41.919Z,-1.30
2019-01-18T19:15:55.027Z,-1.30
2019-01-18T19:19:04.808Z,-1.30
2019-01-18T19:22:10.518Z,-1.30
2019-01-18T19:25:33.634Z,-1.30
2019-01-18T19:28:50.390Z,-1.30
2019-01-18T19:31:49.742Z,-1.30
2019-01-18T19:34:49.000Z,-1.30
2019-01-18T19:37:54.586Z,-1.30
2019-01-18T19:41:08.635Z,-1.20
2019-01-18T19:44:13.868Z,-1.20
2019-01-18T19:47:18.310Z,-1.20
2019-01-18T19:50:02.809Z,-1.10
2019-01-18T19:56:56.510Z,-1.10
2019-01-18T20:00:23.621Z,-1.10
2019-01-18T20:03:44.708Z,-1.10
2019-01-18T20:10:33.027Z,-1.10
2019-01-18T20:13:27.398Z,-1.10
2019-01-18T20:16:25.121Z,-1.00
2019-01-18T20:19:43.268Z,-1.00
2019-01-18T20:23:05.539Z,-1.00
2019-01-18T20:25:56.566Z,-1.00
2019-01-18T20:28:52.675Z,-1.00
2019-01-18T20:31:39.919Z,-1.10
2019-01-18T20:34:34.152Z,-1.10
2019-01-18T20:44:57.254Z,-1.20
2019-01-18T20:48:11.541Z,-1.20
2019-01-18T20:51:13.038Z,-1.30
2019-01-18T20:57:52.731Z,-1.30
2019-01-18T21:00:47.784Z,-1.40
2019-01-18T21:03:48.211Z,-1.40
2019-01-18T21:06:57.929Z,-1.40
2019-01-18T21:09:45.840Z,-1.40
2019-01-18T21:12:55.069Z,-1.40
2019-01-18T21:16:15.907Z,-1.50
2019-01-18T21:19:00.442Z,-1.50
2019-01-18T21:22:03.549Z,-1.50
2019-01-18T21:24:59.738Z,-1.60
2019-01-18T21:27:58.364Z,-1.60
2019-01-18T21:30:51.575Z,-1.60
2019-01-18T21:33:55.678Z,-1.60
2019-01-18T21:37:14.479Z,-1.60
2019-01-18T21:40:14.581Z,-1.60
2019-01-18T21:43:23.892Z,-1.70
2019-01-18T21:46:39.629Z,-1.70
2019-01-18T21:49:29.352Z,-1.70
2019-01-18T21:52:37.799Z,-1.70
2019-01-18T21:55:51.369Z,-1.70
2019-01-18T21:58:45.794Z,-1.70
2019-01-18T22:01:33.439Z,-1.70
2019-01-18T22:04:40.352Z,-1.70
2019-01-18T22:07:54.801Z,-1.80
2019-01-18T22:10:37.449Z,-1.80
2019-01-18T22:13:57.333Z,-1.80
2019-01-18T22:17:13.897Z,-1.80
2019-01-18T22:20:24.072Z,-1.80
2019-01-18T22:23:21.831Z,-1.80
2019-01-18T22:26:32.492Z,-1.80
2019-01-18T22:29:35.375Z,-1.80
2019-01-18T22:32:35.109Z,-1.80
2019-01-18T22:35:30.975Z,-1.80
2019-01-18T22:38:24.917Z,-1.80
2019-01-18T22:41:39.267Z,-1.80
2019-01-18T22:44:41.799Z,-1.80
2019-01-18T22:47:36.069Z,-1.80
2019-01-18T22:50:49.869Z,-1.70
2019-01-18T22:53:44.222Z,-1.80
2019-01-18T22:56:55.158Z,-1.80
2019-01-18T22:59:43.272Z,-1.80
2019-01-18T23:02:53.027Z,-1.80
2019-01-18T23:05:53.450Z,-1.80
2019-01-18T23:09:18.525Z,-1.80
2019-01-18T23:12:15.790Z,-1.80
2019-01-18T23:15:35.566Z,-1.80
2019-01-18T23:18:17.927Z,-1.80
2019-01-18T23:21:34.573Z,-1.80
2019-01-18T23:24:35.640Z,-1.80
2019-01-18T23:28:01.816Z,-1.80
2019-01-18T23:31:15.362Z,-1.80
2019-01-18T23:34:20.524Z,-1.80
2019-01-18T23:37:26.505Z,-1.80
2019-01-18T23:40:28.430Z,-1.80
2019-01-18T23:43:38.027Z,-1.80
2019-01-18T23:46:45.055Z,-1.80
2019-01-18T23:49:30.201Z,-1.80
2019-01-18T23:59:49.568Z,-1.80
